SAS177A EKVG-EKCH
Flight info
| Callsign | SAS177A |
|---|---|
| Flight time | N/A |
| Altitude | 39000 |
| Route | ROBUR DCT GUNPA/N0438F390 DCT ZOL DCT RASVI DCT TESPI |
| Aircraft | A20N/M-SDE2E3FGHIRWXY/LB1 |
Departure
| Time | 2026-04-28 12:20 |
|---|---|
| Airport | Vágar Airport (EKVG) |
Arrival
| Time | N/A |
|---|---|
| Airport | Copenhagen Kastrup Airport (EKCH) |
| Time | Latitude | Longitude | Altitude | Speed | Heading |
|---|---|---|---|---|---|
| 2026-04-28 11:47 | 62.06669 | -7.27872 | 290 ft | 0 kts | 29° |
| 2026-04-28 12:03 | 62.06666 | -7.27875 | 290 ft | 1 kts | 29° |
| 2026-04-28 12:03 | 62.06657 | -7.27885 | 290 ft | 2 kts | 19° |
| 2026-04-28 12:03 | 62.06642 | -7.27888 | 290 ft | 2 kts | 348° |
| 2026-04-28 12:04 | 62.06628 | -7.27875 | 290 ft | 2 kts | 321° |
| 2026-04-28 12:04 | 62.06620 | -7.27857 | 290 ft | 0 kts | 300° |
| 2026-04-28 12:04 | 62.06617 | -7.27843 | 290 ft | 0 kts | 296° |
| 2026-04-28 12:12 | 62.06618 | -7.27847 | 290 ft | 1 kts | 296° |
| 2026-04-28 12:12 | 62.06625 | -7.27874 | 290 ft | 3 kts | 296° |
| 2026-04-28 12:13 | 62.06637 | -7.27927 | 290 ft | 4 kts | 295° |
| 2026-04-28 12:13 | 62.06649 | -7.28005 | 289 ft | 6 kts | 285° |
| 2026-04-28 12:13 | 62.06633 | -7.28083 | 289 ft | 6 kts | 206° |
| 2026-04-28 12:13 | 62.06589 | -7.28090 | 290 ft | 7 kts | 179° |
| 2026-04-28 12:14 | 62.06536 | -7.28111 | 290 ft | 8 kts | 201° |
| 2026-04-28 12:14 | 62.06489 | -7.28155 | 292 ft | 6 kts | 197° |
| 2026-04-28 12:14 | 62.06459 | -7.28126 | 293 ft | 5 kts | 117° |
| 2026-04-28 12:14 | 62.06441 | -7.28053 | 293 ft | 6 kts | 118° |
| 2026-04-28 12:15 | 62.06418 | -7.27960 | 294 ft | 8 kts | 119° |
| 2026-04-28 12:15 | 62.06386 | -7.27838 | 295 ft | 10 kts | 120° |
| 2026-04-28 12:15 | 62.06350 | -7.27679 | 294 ft | 13 kts | 118° |
| 2026-04-28 12:15 | 62.06298 | -7.27473 | 290 ft | 18 kts | 119° |
| 2026-04-28 12:16 | 62.06233 | -7.27210 | 283 ft | 22 kts | 118° |
| 2026-04-28 12:16 | 62.06152 | -7.26898 | 274 ft | 25 kts | 114° |
| 2026-04-28 12:16 | 62.06066 | -7.26546 | 262 ft | 28 kts | 117° |
| 2026-04-28 12:16 | 62.05966 | -7.26148 | 251 ft | 31 kts | 119° |
| 2026-04-28 12:17 | 62.05928 | -7.26016 | 249 ft | 1 kts | 124° |
| 2026-04-28 12:17 | 62.05924 | -7.25991 | 249 ft | 2 kts | 71° |
| 2026-04-28 12:17 | 62.05944 | -7.26015 | 249 ft | 8 kts | 279° |
| 2026-04-28 12:17 | 62.05962 | -7.26109 | 250 ft | 0 kts | 297° |
| 2026-04-28 12:19 | 62.05975 | -7.26164 | 251 ft | 22 kts | 297° |
| 2026-04-28 12:19 | 62.06172 | -7.26967 | 276 ft | 96 kts | 299° |
| 2026-04-28 12:19 | 62.06585 | -7.28629 | 293 ft | 153 kts | 295° |
| 2026-04-28 12:19 | 62.07089 | -7.30676 | 847 ft | 157 kts | 294° |
| 2026-04-28 12:20 | 62.07565 | -7.32693 | 1600 ft | 154 kts | 293° |
| 2026-04-28 12:20 | 62.07979 | -7.34769 | 2241 ft | 155 kts | 274° |
| 2026-04-28 12:20 | 62.07620 | -7.36872 | 2667 ft | 162 kts | 227° |
| 2026-04-28 12:20 | 62.06746 | -7.38514 | 3120 ft | 175 kts | 214° |
| 2026-04-28 12:21 | 62.05641 | -7.39363 | 3857 ft | 173 kts | 185° |
| 2026-04-28 12:21 | 62.04482 | -7.38633 | 4422 ft | 187 kts | 149° |
| 2026-04-28 12:21 | 62.03671 | -7.36386 | 5025 ft | 203 kts | 115° |
| 2026-04-28 12:21 | 62.03554 | -7.33358 | 5647 ft | 218 kts | 79° |
| 2026-04-28 12:22 | 62.04365 | -7.30564 | 6068 ft | 233 kts | 36° |
| 2026-04-28 12:22 | 62.05810 | -7.28941 | 6510 ft | 245 kts | 20° |
| 2026-04-28 12:22 | 62.07277 | -7.26836 | 6872 ft | 270 kts | 50° |
| 2026-04-28 12:22 | 62.08032 | -7.23113 | 7303 ft | 283 kts | 89° |
| 2026-04-28 12:23 | 62.07678 | -7.19083 | 7985 ft | 280 kts | 124° |
| 2026-04-28 12:23 | 62.06375 | -7.16110 | 8520 ft | 280 kts | 155° |
| 2026-04-28 12:23 | 62.04678 | -7.14101 | 9266 ft | 287 kts | 152° |
| 2026-04-28 12:23 | 62.03251 | -7.11070 | 9998 ft | 302 kts | 127° |
| 2026-04-28 12:24 | 62.02181 | -7.07203 | 10719 ft | 307 kts | 124° |
| 2026-04-28 12:24 | 62.01117 | -7.03234 | 11159 ft | 322 kts | 123° |
| 2026-04-28 12:24 | 61.99970 | -6.98993 | 11529 ft | 339 kts | 123° |
| 2026-04-28 12:24 | 61.98754 | -6.94551 | 11936 ft | 354 kts | 123° |
| 2026-04-28 12:25 | 61.97520 | -6.90053 | 12581 ft | 358 kts | 123° |
| 2026-04-28 12:25 | 61.96260 | -6.85466 | 13282 ft | 360 kts | 123° |
| 2026-04-28 12:25 | 61.95240 | -6.81777 | 13802 ft | 362 kts | 123° |
| 2026-04-28 12:25 | 61.93962 | -6.77163 | 14440 ft | 366 kts | 122° |
| 2026-04-28 12:26 | 61.92670 | -6.72520 | 15091 ft | 370 kts | 122° |
| 2026-04-28 12:26 | 61.91359 | -6.67803 | 15792 ft | 374 kts | 122° |
| 2026-04-28 12:26 | 61.90039 | -6.63045 | 16510 ft | 378 kts | 121° |
| 2026-04-28 12:26 | 61.88906 | -6.58076 | 17197 ft | 383 kts | 113° |
| 2026-04-28 12:27 | 61.88047 | -6.52748 | 17878 ft | 388 kts | 106° |
| 2026-04-28 12:27 | 61.87408 | -6.47207 | 18552 ft | 391 kts | 103° |
| 2026-04-28 12:27 | 61.86808 | -6.41537 | 19218 ft | 395 kts | 103° |
| 2026-04-28 12:27 | 61.86213 | -6.35902 | 19864 ft | 398 kts | 103° |
| 2026-04-28 12:28 | 61.85599 | -6.30146 | 20499 ft | 402 kts | 104° |
| 2026-04-28 12:28 | 61.84977 | -6.24391 | 21096 ft | 405 kts | 104° |
| 2026-04-28 12:28 | 61.84337 | -6.18543 | 21680 ft | 409 kts | 104° |
| 2026-04-28 12:28 | 61.83696 | -6.12728 | 22244 ft | 412 kts | 104° |
| 2026-04-28 12:29 | 61.82374 | -6.00838 | 23323 ft | 419 kts | 104° |
| 2026-04-28 12:29 | 61.81709 | -5.94908 | 23835 ft | 423 kts | 104° |
| 2026-04-28 12:29 | 61.81021 | -5.88812 | 24355 ft | 426 kts | 104° |
| 2026-04-28 12:30 | 61.80333 | -5.82730 | 24864 ft | 429 kts | 104° |
| 2026-04-28 12:30 | 61.79639 | -5.76634 | 25368 ft | 432 kts | 104° |
| 2026-04-28 12:30 | 61.78939 | -5.70511 | 25859 ft | 435 kts | 104° |
| 2026-04-28 12:30 | 61.78227 | -5.64313 | 26343 ft | 438 kts | 103° |
| 2026-04-28 12:31 | 61.77503 | -5.58029 | 26815 ft | 441 kts | 103° |
| 2026-04-28 12:31 | 61.76780 | -5.51782 | 27263 ft | 443 kts | 103° |
| 2026-04-28 12:31 | 61.76043 | -5.45444 | 27696 ft | 446 kts | 103° |
| 2026-04-28 12:31 | 61.75308 | -5.39134 | 28116 ft | 449 kts | 103° |
| 2026-04-28 12:32 | 61.74554 | -5.32711 | 28535 ft | 452 kts | 104° |
| 2026-04-28 12:32 | 61.73801 | -5.26328 | 28930 ft | 454 kts | 104° |
| 2026-04-28 12:32 | 61.73041 | -5.19904 | 29320 ft | 457 kts | 104° |
| 2026-04-28 12:32 | 61.72261 | -5.13345 | 29732 ft | 459 kts | 104° |
| 2026-04-28 12:33 | 61.71492 | -5.06902 | 30144 ft | 460 kts | 104° |
| 2026-04-28 12:33 | 61.70708 | -5.00368 | 30575 ft | 461 kts | 104° |
| 2026-04-28 12:33 | 61.69923 | -4.93850 | 31100 ft | 459 kts | 104° |
| 2026-04-28 12:33 | 61.69140 | -4.87374 | 31630 ft | 457 kts | 104° |
| 2026-04-28 12:34 | 61.68361 | -4.80965 | 32135 ft | 456 kts | 103° |
| 2026-04-28 12:34 | 61.67580 | -4.74560 | 32637 ft | 455 kts | 103° |
| 2026-04-28 12:34 | 61.66792 | -4.68132 | 33124 ft | 453 kts | 103° |
| 2026-04-28 12:34 | 61.66005 | -4.61734 | 33604 ft | 452 kts | 103° |
| 2026-04-28 12:35 | 61.65216 | -4.55353 | 34069 ft | 451 kts | 103° |
| 2026-04-28 12:35 | 61.64434 | -4.49046 | 34509 ft | 450 kts | 103° |
| 2026-04-28 12:35 | 61.63640 | -4.42677 | 34937 ft | 449 kts | 103° |
| 2026-04-28 12:35 | 61.62858 | -4.36430 | 35346 ft | 448 kts | 103° |
| 2026-04-28 12:36 | 61.62064 | -4.30103 | 35739 ft | 447 kts | 104° |
| 2026-04-28 12:36 | 61.61272 | -4.23827 | 36091 ft | 447 kts | 104° |
| 2026-04-28 12:36 | 61.60474 | -4.17530 | 36438 ft | 446 kts | 104° |
| 2026-04-28 12:36 | 61.59685 | -4.11329 | 36772 ft | 445 kts | 104° |
| 2026-04-28 12:37 | 61.58883 | -4.05057 | 37099 ft | 444 kts | 103° |
| 2026-04-28 12:37 | 61.58082 | -3.98810 | 37396 ft | 443 kts | 103° |
| 2026-04-28 12:37 | 61.57284 | -3.92610 | 37674 ft | 443 kts | 103° |
| 2026-04-28 12:37 | 61.56481 | -3.86403 | 37937 ft | 443 kts | 103° |
| 2026-04-28 12:38 | 61.55682 | -3.80252 | 38189 ft | 443 kts | 103° |
| 2026-04-28 12:38 | 61.54871 | -3.74029 | 38424 ft | 442 kts | 103° |
| 2026-04-28 12:38 | 61.54061 | -3.67845 | 38647 ft | 442 kts | 103° |
| 2026-04-28 12:38 | 61.53246 | -3.61646 | 38849 ft | 443 kts | 103° |
| 2026-04-28 12:39 | 61.52433 | -3.55482 | 39026 ft | 444 kts | 103° |
| 2026-04-28 12:39 | 61.51611 | -3.49282 | 39181 ft | 445 kts | 103° |
| 2026-04-28 12:39 | 61.50778 | -3.43011 | 39341 ft | 446 kts | 103° |
| 2026-04-28 12:39 | 61.49947 | -3.36787 | 39448 ft | 447 kts | 103° |
| 2026-04-28 12:40 | 61.49113 | -3.30564 | 39473 ft | 447 kts | 103° |
| 2026-04-28 12:40 | 61.47429 | -3.18073 | 39471 ft | 447 kts | 103° |
| 2026-04-28 12:41 | 61.45742 | -3.05663 | 39463 ft | 446 kts | 103° |
| 2026-04-28 12:41 | 61.44052 | -2.93324 | 39430 ft | 446 kts | 103° |